Station Historical Data
Daily Summary for February 20, 2017 Units:  Both    English   Metric
« Previous Day
Next Day »
Daily Weekly Monthly Yearly Custom
  High: Low: Average:
Temperature: 46.6 °F /  8.1 °C 25.0 °F /  -3.9 °C 34.5 °F /  1.4 °C
Dew Point: 31.3 °F /  -0.4 °C 19.7 °F /  -6.8 °C 24.8 °F /  -4 °C
Humidity: 93% 37% 70%
Wind Speed: 9.0mph /  14.5km/h - 2.8mph /  4.5km/h
Wind Gust: 14.0mph /  22.5km/h - -
Wind- - NE
Pressure: 30.39 in /  1029 hPa 30.16 in /  1021.2 hPa -
Precipitation: 0.00 in /  0 mm    
Historical Graphs
 
 
Tabular Data for February 20, 2017
Time Temperature Dew Point Pressure Wind Wind Speed Wind Gust Humidity Rainfall Rate (Hourly)
00:04 29.4 °F /  -1.4 °C 27.1 °F /  -2.7 °C 30.16in /  1021.2hPa Calm     91% 0.00in /  0mm
00:09 29.1 °F /  -1.6 °C 26.8 °F /  -2.9 °C 30.16in /  1021.2hPa Calm     91% 0.00in /  0mm
00:14 29.1 °F /  -1.6 °C 27.1 °F /  -2.7 °C 30.16in /  1021.2hPa Calm     92% 0.00in /  0mm
00:19 28.9 °F /  -1.7 °C 26.6 °F /  -3 °C 30.16in /  1021.2hPa Calm     91% 0.00in /  0mm
00:24 28.8 °F /  -1.8 °C 26.5 °F /  -3.1 °C 30.16in /  1021.2hPa Calm     91% 0.00in /  0mm
00:29 28.7 °F /  -1.8 °C 26.4 °F /  -3.1 °C 30.17in /  1021.6hPa Calm     91% 0.00in /  0mm
00:34 28.5 °F /  -1.9 °C 26.2 °F /  -3.2 °C 30.17in /  1021.6hPa Calm     91% 0.00in /  0mm
00:39 28.5 °F /  -1.9 °C 26.2 °F /  -3.2 °C 30.17in /  1021.6hPa Calm     91% 0.00in /  0mm
00:44 28.4 °F /  -2 °C 26.1 °F /  -3.3 °C 30.17in /  1021.6hPa Calm     91% 0.00in /  0mm
00:49 28.4 °F /  -2 °C 26.1 °F /  -3.3 °C 30.17in /  1021.6hPa Calm     91% 0.00in /  0mm
00:54 28.3 °F /  -2.1 °C 26.0 °F /  -3.3 °C 30.18in /  1021.9hPa Calm     91% 0.00in /  0mm
00:59 28.0 °F /  -2.2 °C 25.7 °F /  -3.5 °C 30.18in /  1021.9hPa Calm     91% 0.00in /  0mm
01:04 27.8 °F /  -2.3 °C 25.5 °F /  -3.6 °C 30.19in /  1022.2hPa Calm     91% 0.00in /  0mm
01:14 27.7 °F /  -2.4 °C 25.4 °F /  -3.7 °C 30.19in /  1022.2hPa Calm     91% 0.00in /  0mm
01:19 27.7 °F /  -2.4 °C 25.4 °F /  -3.7 °C 30.18in /  1021.9hPa Calm     91% 0.00in /  0mm
01:24 27.6 °F /  -2.4 °C 25.3 °F /  -3.7 °C 30.18in /  1021.9hPa Calm     91% 0.00in /  0mm
01:29 27.6 °F /  -2.4 °C 25.3 °F /  -3.7 °C 30.18in /  1021.9hPa Calm     91% 0.00in /  0mm
01:34 27.7 °F /  -2.4 °C 25.4 °F /  -3.7 °C 30.18in /  1021.9hPa Calm     91% 0.00in /  0mm
01:39 27.8 °F /  -2.3 °C 25.8 °F /  -3.4 °C 30.19in /  1022.2hPa Calm     92% 0.00in /  0mm
01:44 27.9 °F /  -2.3 °C 25.6 °F /  -3.6 °C 30.19in /  1022.2hPa Calm     91% 0.00in /  0mm
01:49 27.6 °F /  -2.4 °C 25.3 °F /  -3.7 °C 30.19in /  1022.2hPa Calm     91% 0.00in /  0mm
01:54 27.6 °F /  -2.4 °C 25.3 °F /  -3.7 °C 30.19in /  1022.2hPa Calm     91% 0.00in /  0mm
01:59 27.4 °F /  -2.6 °C 25.1 °F /  -3.8 °C 30.19in /  1022.2hPa Calm     91% 0.00in /  0mm
02:04 27.2 °F /  -2.7 °C 24.9 °F /  -3.9 °C 30.19in /  1022.2hPa Calm     91% 0.00in /  0mm
02:09 27.2 °F /  -2.7 °C 24.9 °F /  -3.9 °C 30.20in /  1022.6hPa Calm     91% 0.00in /  0mm
02:14 27.1 °F /  -2.7 °C 24.8 °F /  -4 °C 30.20in /  1022.6hPa Calm     91% 0.00in /  0mm
02:19 27.1 °F /  -2.7 °C 24.8 °F /  -4 °C 30.20in /  1022.6hPa Calm     91% 0.00in /  0mm
02:24 27.0 °F /  -2.8 °C 24.7 °F /  -4.1 °C 30.20in /  1022.6hPa Calm     91% 0.00in /  0mm
02:29 27.0 °F /  -2.8 °C 24.7 °F /  -4.1 °C 30.20in /  1022.6hPa Calm     91% 0.00in /  0mm
02:34 26.9 °F /  -2.8 °C 24.6 °F /  -4.1 °C 30.21in /  1022.9hPa Calm     91% 0.00in /  0mm
02:39 26.8 °F /  -2.9 °C 24.5 °F /  -4.2 °C 30.21in /  1022.9hPa Calm     91% 0.00in /  0mm
02:44 26.9 °F /  -2.8 °C 24.9 °F /  -3.9 °C 30.20in /  1022.6hPa Calm     92% 0.00in /  0mm
02:49 26.8 °F /  -2.9 °C 24.5 °F /  -4.2 °C 30.21in /  1022.9hPa Calm     91% 0.00in /  0mm
02:54 26.7 °F /  -2.9 °C 24.4 °F /  -4.2 °C 30.21in /  1022.9hPa Calm     91% 0.00in /  0mm
02:59 27.0 °F /  -2.8 °C 25.0 °F /  -3.9 °C 30.21in /  1022.9hPa Calm     92% 0.00in /  0mm
03:04 27.2 °F /  -2.7 °C 25.2 °F /  -3.8 °C 30.21in /  1022.9hPa Calm     92% 0.00in /  0mm
03:09 27.4 °F /  -2.6 °C 25.4 °F /  -3.7 °C 30.21in /  1022.9hPa Calm     92% 0.00in /  0mm
03:14 27.5 °F /  -2.5 °C 25.5 °F /  -3.6 °C 30.21in /  1022.9hPa Calm     92% 0.00in /  0mm
03:19 27.4 °F /  -2.6 °C 25.4 °F /  -3.7 °C 30.21in /  1022.9hPa Calm     92% 0.00in /  0mm
03:24 27.0 °F /  -2.8 °C 24.7 °F /  -4.1 °C 30.21in /  1022.9hPa Calm     91% 0.00in /  0mm
03:29 26.7 °F /  -2.9 °C 24.4 °F /  -4.2 °C 30.22in /  1023.2hPa Calm     91% 0.00in /  0mm
03:34 26.6 °F /  -3 °C 24.3 °F /  -4.3 °C 30.22in /  1023.2hPa Calm     91% 0.00in /  0mm
03:39 26.7 °F /  -2.9 °C 24.4 °F /  -4.2 °C 30.22in /  1023.2hPa Calm     91% 0.00in /  0mm
03:44 26.4 °F /  -3.1 °C 24.1 °F /  -4.4 °C 30.22in /  1023.2hPa Calm     91% 0.00in /  0mm
03:49 26.3 °F /  -3.2 °C 24.0 °F /  -4.4 °C 30.22in /  1023.2hPa Calm     91% 0.00in /  0mm
03:54 26.2 °F /  -3.2 °C 23.9 °F /  -4.5 °C 30.23in /  1023.6hPa Calm     91% 0.00in /  0mm
03:59 26.3 °F /  -3.2 °C 24.3 °F /  -4.3 °C 30.23in /  1023.6hPa Calm     92% 0.00in /  0mm
04:04 26.1 °F /  -3.3 °C 23.8 °F /  -4.6 °C 30.23in /  1023.6hPa Calm     91% 0.00in /  0mm
04:09 26.1 °F /  -3.3 °C 24.1 °F /  -4.4 °C 30.23in /  1023.6hPa Calm     92% 0.00in /  0mm
04:14 26.4 °F /  -3.1 °C 24.4 °F /  -4.2 °C 30.23in /  1023.6hPa Calm     92% 0.00in /  0mm
04:19 26.6 °F /  -3 °C 24.6 °F /  -4.1 °C 30.24in /  1023.9hPa Calm     92% 0.00in /  0mm
04:24 26.6 °F /  -3 °C 24.6 °F /  -4.1 °C 30.24in /  1023.9hPa Calm     92% 0.00in /  0mm
04:29 26.5 °F /  -3.1 °C 24.5 °F /  -4.2 °C 30.24in /  1023.9hPa Calm     92% 0.00in /  0mm
04:34 26.5 °F /  -3.1 °C 24.5 °F /  -4.2 °C 30.24in /  1023.9hPa Calm     92% 0.00in /  0mm
04:39 26.4 °F /  -3.1 °C 24.1 °F /  -4.4 °C 30.25in /  1024.3hPa Calm     91% 0.00in /  0mm
04:44 26.3 °F /  -3.2 °C 24.3 °F /  -4.3 °C 30.25in /  1024.3hPa Calm     92% 0.00in /  0mm
04:49 26.2 °F /  -3.2 °C 23.9 °F /  -4.5 °C 30.25in /  1024.3hPa Calm     91% 0.00in /  0mm
04:54 26.0 °F /  -3.3 °C 23.7 °F /  -4.6 °C 30.25in /  1024.3hPa Calm     91% 0.00in /  0mm
04:59 26.1 °F /  -3.3 °C 23.8 °F /  -4.6 °C 30.26in /  1024.6hPa Calm     91% 0.00in /  0mm
05:04 26.1 °F /  -3.3 °C 23.8 °F /  -4.6 °C 30.26in /  1024.6hPa Calm     91% 0.00in /  0mm
05:09 25.9 °F /  -3.4 °C 23.6 °F /  -4.7 °C 30.27in /  1024.9hPa Calm     91% 0.00in /  0mm
05:14 25.9 °F /  -3.4 °C 23.6 °F /  -4.7 °C 30.27in /  1024.9hPa Calm     91% 0.00in /  0mm
05:19 25.7 °F /  -3.5 °C 23.4 °F /  -4.8 °C 30.28in /  1025.3hPa Calm     91% 0.00in /  0mm
05:24 25.5 °F /  -3.6 °C 23.2 °F /  -4.9 °C 30.28in /  1025.3hPa Calm     91% 0.00in /  0mm
05:29 25.4 °F /  -3.7 °C 23.1 °F /  -4.9 °C 30.28in /  1025.3hPa Calm     91% 0.00in /  0mm
05:34 25.3 °F /  -3.7 °C 23.0 °F /  -5 °C 30.28in /  1025.3hPa Calm     91% 0.00in /  0mm
05:39 25.1 °F /  -3.8 °C 22.8 °F /  -5.1 °C 30.28in /  1025.3hPa Calm     91% 0.00in /  0mm
05:44 25.0 °F /  -3.9 °C 22.7 °F /  -5.2 °C 30.28in /  1025.3hPa Calm     91% 0.00in /  0mm
05:49 25.0 °F /  -3.9 °C 22.7 °F /  -5.2 °C 30.28in /  1025.3hPa Calm     91% 0.00in /  0mm
05:54 25.2 °F /  -3.8 °C 22.9 °F /  -5.1 °C 30.29in /  1025.6hPa Calm     91% 0.00in /  0mm
05:59 25.2 °F /  -3.8 °C 22.9 °F /  -5.1 °C 30.29in /  1025.6hPa Calm     91% 0.00in /  0mm
06:04 25.1 °F /  -3.8 °C 22.8 °F /  -5.1 °C 30.29in /  1025.6hPa Calm     91% 0.00in /  0mm
06:09 25.3 °F /  -3.7 °C 23.0 °F /  -5 °C 30.29in /  1025.6hPa Calm     91% 0.00in /  0mm
06:14 25.1 °F /  -3.8 °C 22.8 °F /  -5.1 °C 30.29in /  1025.6hPa Calm     91% 0.00in /  0mm
06:19 25.3 °F /  -3.7 °C 23.0 °F /  -5 °C 30.29in /  1025.6hPa Calm     91% 0.00in /  0mm
06:24 25.3 °F /  -3.7 °C 23.0 °F /  -5 °C 30.30in /  1026hPa Calm     91% 0.00in /  0mm
06:29 25.3 °F /  -3.7 °C 23.0 °F /  -5 °C 30.30in /  1026hPa Calm     91% 0.00in /  0mm
06:34 25.2 °F /  -3.8 °C 22.9 °F /  -5.1 °C 30.30in /  1026hPa Calm     91% 0.00in /  0mm
06:39 25.6 °F /  -3.6 °C 23.3 °F /  -4.8 °C 30.30in /  1026hPa Calm     91% 0.00in /  0mm
06:44 25.6 °F /  -3.6 °C 23.3 °F /  -4.8 °C 30.30in /  1026hPa Calm     91% 0.00in /  0mm
06:49 25.5 °F /  -3.6 °C 23.2 °F /  -4.9 °C 30.31in /  1026.3hPa Calm     91% 0.00in /  0mm
06:54 25.4 °F /  -3.7 °C 23.1 °F /  -4.9 °C 30.31in /  1026.3hPa Calm     91% 0.00in /  0mm
06:59 25.8 °F /  -3.4 °C 23.8 °F /  -4.6 °C 30.31in /  1026.3hPa Calm     92% 0.00in /  0mm
07:04 27.3 °F /  -2.6 °C 25.5 °F /  -3.6 °C 30.31in /  1026.3hPa Calm   3.0mph /  4.8km/h 93% 0.00in /  0mm
07:09 28.8 °F /  -1.8 °C 27.0 °F /  -2.8 °C 30.32in /  1026.6hPa ENE 1.0mph /  1.6km/h 3.0mph /  4.8km/h 93% 0.00in /  0mm
07:14 29.7 °F /  -1.3 °C 27.9 °F /  -2.3 °C 30.32in /  1026.6hPa ENE 1.0mph /  1.6km/h 4.0mph /  6.4km/h 93% 0.00in /  0mm
07:19 30.1 °F /  -1.1 °C 28.1 °F /  -2.2 °C 30.32in /  1026.6hPa NE 1.0mph /  1.6km/h 4.0mph /  6.4km/h 92% 0.00in /  0mm
07:24 30.3 °F /  -0.9 °C 28.3 °F /  -2.1 °C 30.32in /  1026.6hPa NE 1.0mph /  1.6km/h 3.0mph /  4.8km/h 92% 0.00in /  0mm
07:29 30.3 °F /  -0.9 °C 28.3 °F /  -2.1 °C 30.32in /  1026.6hPa NE 1.0mph /  1.6km/h 3.0mph /  4.8km/h 92% 0.00in /  0mm
07:34 30.4 °F /  -0.9 °C 28.4 °F /  -2 °C 30.33in /  1027hPa NE 2.0mph /  3.2km/h 2.0mph /  3.2km/h 92% 0.00in /  0mm
07:39 30.9 °F /  -0.6 °C 28.9 °F /  -1.7 °C 30.32in /  1026.6hPa NE 2.0mph /  3.2km/h 3.0mph /  4.8km/h 92% 0.00in /  0mm
07:44 31.2 °F /  -0.4 °C 29.1 °F /  -1.6 °C 30.33in /  1027hPa Calm   4.0mph /  6.4km/h 92% 0.00in /  0mm
07:49 31.3 °F /  -0.4 °C 29.2 °F /  -1.6 °C 30.33in /  1027hPa NE 2.0mph /  3.2km/h 5.0mph /  8km/h 92% 0.00in /  0mm
07:54 31.6 °F /  -0.2 °C 29.5 °F /  -1.4 °C 30.33in /  1027hPa NE 2.0mph /  3.2km/h 5.0mph /  8km/h 92% 0.00in /  0mm
07:59 31.7 °F /  -0.2 °C 29.6 °F /  -1.3 °C 30.33in /  1027hPa NE 3.0mph /  4.8km/h 4.0mph /  6.4km/h 92% 0.00in /  0mm
08:04 32.0 °F /  0 °C 29.7 °F /  -1.3 °C 30.34in /  1027.3hPa East 2.0mph /  3.2km/h 7.0mph /  11.3km/h 91% 0.00in /  0mm
08:09 32.3 °F /  0.2 °C 30.0 °F /  -1.1 °C 30.35in /  1027.7hPa ENE 3.0mph /  4.8km/h 5.0mph /  8km/h 91% 0.00in /  0mm
08:14 32.5 °F /  0.3 °C 29.9 °F /  -1.2 °C 30.35in /  1027.7hPa NE 1.0mph /  1.6km/h 5.0mph /  8km/h 90% 0.00in /  0mm
08:19 32.8 °F /  0.4 °C 29.9 °F /  -1.2 °C 30.35in /  1027.7hPa NE 3.0mph /  4.8km/h 7.0mph /  11.3km/h 89% 0.00in /  0mm
08:24 33.1 °F /  0.6 °C 30.2 °F /  -1 °C 30.35in /  1027.7hPa NE 3.0mph /  4.8km/h 9.0mph /  14.5km/h 89% 0.00in /  0mm
08:29 33.5 °F /  0.8 °C 30.0 °F /  -1.1 °C 30.35in /  1027.7hPa NE 3.0mph /  4.8km/h 9.0mph /  14.5km/h 87% 0.00in /  0mm
08:34 33.9 °F /  1.1 °C 30.2 °F /  -1 °C 30.35in /  1027.7hPa NE 4.0mph /  6.4km/h 7.0mph /  11.3km/h 86% 0.00in /  0mm
08:39 34.1 °F /  1.2 °C 29.8 °F /  -1.2 °C 30.35in /  1027.7hPa ENE 4.0mph /  6.4km/h 9.0mph /  14.5km/h 84% 0.00in /  0mm
08:44 34.6 °F /  1.4 °C 30.0 °F /  -1.1 °C 30.35in /  1027.7hPa East 2.0mph /  3.2km/h 8.0mph /  12.9km/h 83% 0.00in /  0mm
08:49 34.9 °F /  1.6 °C 30.0 °F /  -1.1 °C 30.36in /  1028hPa NE 8.0mph /  12.9km/h 10.0mph /  16.1km/h 82% 0.00in /  0mm
08:54 34.9 °F /  1.6 °C 29.7 °F /  -1.3 °C 30.36in /  1028hPa NE 5.0mph /  8km/h 11.0mph /  17.7km/h 81% 0.00in /  0mm
08:59 35.1 °F /  1.7 °C 29.6 °F /  -1.3 °C 30.36in /  1028hPa NE 6.0mph /  9.7km/h 11.0mph /  17.7km/h 80% 0.00in /  0mm
09:04 35.5 °F /  1.9 °C 29.9 °F /  -1.2 °C 30.38in /  1028.7hPa NNE 4.0mph /  6.4km/h 8.0mph /  12.9km/h 80% 0.00in /  0mm
09:09 35.7 °F /  2.1 °C 29.8 °F /  -1.2 °C 30.37in /  1028.3hPa East 3.0mph /  4.8km/h 9.0mph /  14.5km/h 79% 0.00in /  0mm
09:14 35.7 °F /  2.1 °C 29.5 °F /  -1.4 °C 30.37in /  1028.3hPa NNE 9.0mph /  14.5km/h 11.0mph /  17.7km/h 78% 0.00in /  0mm
09:19 35.8 °F /  2.1 °C 29.6 °F /  -1.3 °C 30.36in /  1028hPa ENE 3.0mph /  4.8km/h 11.0mph /  17.7km/h 78% 0.00in /  0mm
09:24 36.1 °F /  2.3 °C 29.9 °F /  -1.2 °C 30.36in /  1028hPa ENE 7.0mph /  11.3km/h 11.0mph /  17.7km/h 78% 0.00in /  0mm
09:29 36.0 °F /  2.2 °C 29.5 °F /  -1.4 °C 30.37in /  1028.3hPa NE 6.0mph /  9.7km/h 12.0mph /  19.3km/h 77% 0.00in /  0mm
09:34 36.3 °F /  2.4 °C 29.8 °F /  -1.2 °C 30.36in /  1028hPa NE 6.0mph /  9.7km/h 12.0mph /  19.3km/h 77% 0.00in /  0mm
09:39 36.7 °F /  2.6 °C 30.2 °F /  -1 °C 30.36in /  1028hPa NE 5.0mph /  8km/h 10.0mph /  16.1km/h 77% 0.00in /  0mm
09:44 36.6 °F /  2.6 °C 30.1 °F /  -1.1 °C 30.36in /  1028hPa NE 5.0mph /  8km/h 9.0mph /  14.5km/h 77% 0.00in /  0mm
09:49 36.8 °F /  2.7 °C 30.3 °F /  -0.9 °C 30.36in /  1028hPa ENE 3.0mph /  4.8km/h 9.0mph /  14.5km/h 77% 0.00in /  0mm
09:54 37.3 °F /  2.9 °C 30.4 °F /  -0.9 °C 30.37in /  1028.3hPa ENE 4.0mph /  6.4km/h 10.0mph /  16.1km/h 76% 0.00in /  0mm
09:59 37.4 °F /  3 °C 30.5 °F /  -0.8 °C 30.37in /  1028.3hPa NE 7.0mph /  11.3km/h 9.0mph /  14.5km/h 76% 0.00in /  0mm
10:04 37.7 °F /  3.2 °C 30.8 °F /  -0.7 °C 30.37in /  1028.3hPa NE 5.0mph /  8km/h 9.0mph /  14.5km/h 76% 0.00in /  0mm
10:09 37.8 °F /  3.2 °C 30.6 °F /  -0.8 °C 30.36in /  1028hPa NNE 4.0mph /  6.4km/h 7.0mph /  11.3km/h 75% 0.00in /  0mm
10:14 37.8 °F /  3.2 °C 30.6 °F /  -0.8 °C 30.36in /  1028hPa NNE 3.0mph /  4.8km/h 9.0mph /  14.5km/h 75% 0.00in /  0mm
10:19 38.4 °F /  3.6 °C 30.8 °F /  -0.7 °C 30.36in /  1028hPa NE 5.0mph /  8km/h 10.0mph /  16.1km/h 74% 0.00in /  0mm
10:24 38.1 °F /  3.4 °C 30.9 °F /  -0.6 °C 30.37in /  1028.3hPa ENE 2.0mph /  3.2km/h 9.0mph /  14.5km/h 75% 0.00in /  0mm
10:29 38.5 °F /  3.6 °C 30.9 °F /  -0.6 °C 30.37in /  1028.3hPa ENE 3.0mph /  4.8km/h 8.0mph /  12.9km/h 74% 0.00in /  0mm
10:34 38.9 °F /  3.8 °C 31.3 °F /  -0.4 °C 30.37in /  1028.3hPa NE 4.0mph /  6.4km/h 8.0mph /  12.9km/h 74% 0.00in /  0mm
10:39 38.4 °F /  3.6 °C 30.5 °F /  -0.8 °C 30.37in /  1028.3hPa NE 4.0mph /  6.4km/h 8.0mph /  12.9km/h 73% 0.00in /  0mm
10:44 38.8 °F /  3.8 °C 31.2 °F /  -0.4 °C 30.38in /  1028.7hPa NE 4.0mph /  6.4km/h 8.0mph /  12.9km/h 74% 0.00in /  0mm
10:49 39.0 °F /  3.9 °C 31.1 °F /  -0.5 °C 30.39in /  1029hPa NE 3.0mph /  4.8km/h 7.0mph /  11.3km/h 73% 0.00in /  0mm
10:54 39.6 °F /  4.2 °C 31.3 °F /  -0.4 °C 30.39in /  1029hPa NNE 3.0mph /  4.8km/h 7.0mph /  11.3km/h 72% 0.00in /  0mm
10:59 39.6 °F /  4.2 °C 30.6 °F /  -0.8 °C 30.39in /  1029hPa NNE 4.0mph /  6.4km/h 7.0mph /  11.3km/h 70% 0.00in /  0mm
11:04 39.5 °F /  4.2 °C 30.5 °F /  -0.8 °C 30.38in /  1028.7hPa NE 2.0mph /  3.2km/h 5.0mph /  8km/h 70% 0.00in /  0mm
11:09 39.9 °F /  4.4 °C 30.9 °F /  -0.6 °C 30.39in /  1029hPa NNE 3.0mph /  4.8km/h 6.0mph /  9.7km/h 70% 0.00in /  0mm
11:14 40.0 °F /  4.4 °C 31.0 °F /  -0.6 °C 30.38in /  1028.7hPa NNE 3.0mph /  4.8km/h 6.0mph /  9.7km/h 70% 0.00in /  0mm
11:19 40.3 °F /  4.6 °C 30.9 °F /  -0.6 °C 30.38in /  1028.7hPa ENE 4.0mph /  6.4km/h 6.0mph /  9.7km/h 69% 0.00in /  0mm
11:24 40.1 °F /  4.5 °C 30.7 °F /  -0.7 °C 30.38in /  1028.7hPa NNE 2.0mph /  3.2km/h 9.0mph /  14.5km/h 69% 0.00in /  0mm
11:29 40.4 °F /  4.7 °C 29.2 °F /  -1.6 °C 30.38in /  1028.7hPa ENE 4.0mph /  6.4km/h 9.0mph /  14.5km/h 64% 0.00in /  0mm
11:34 40.2 °F /  4.6 °C 30.1 °F /  -1.1 °C 30.38in /  1028.7hPa NE 3.0mph /  4.8km/h 7.0mph /  11.3km/h 67% 0.00in /  0mm
11:39 40.2 °F /  4.6 °C 29.7 °F /  -1.3 °C 30.38in /  1028.7hPa NNW 2.0mph /  3.2km/h 7.0mph /  11.3km/h 66% 0.00in /  0mm
11:44 41.2 °F /  5.1 °C 30.7 °F /  -0.7 °C 30.37in /  1028.3hPa NNE 3.0mph /  4.8km/h 7.0mph /  11.3km/h 66% 0.00in /  0mm
11:49 40.4 °F /  4.7 °C 29.6 °F /  -1.3 °C 30.37in /  1028.3hPa NNE 3.0mph /  4.8km/h 6.0mph /  9.7km/h 65% 0.00in /  0mm
11:54 41.3 °F /  5.2 °C 30.8 °F /  -0.7 °C 30.37in /  1028.3hPa NE 4.0mph /  6.4km/h 9.0mph /  14.5km/h 66% 0.00in /  0mm
11:59 41.3 °F /  5.2 °C 30.8 °F /  -0.7 °C 30.37in /  1028.3hPa NE 4.0mph /  6.4km/h 9.0mph /  14.5km/h 66% 0.00in /  0mm
12:04 41.4 °F /  5.2 °C 28.9 °F /  -1.7 °C 30.37in /  1028.3hPa NE 3.0mph /  4.8km/h 8.0mph /  12.9km/h 61% 0.00in /  0mm
12:09 41.8 °F /  5.4 °C 28.9 °F /  -1.7 °C 30.37in /  1028.3hPa East 2.0mph /  3.2km/h 7.0mph /  11.3km/h 60% 0.00in /  0mm
12:14 42.1 °F /  5.6 °C 30.4 °F /  -0.9 °C 30.37in /  1028.3hPa NE 3.0mph /  4.8km/h 7.0mph /  11.3km/h 63% 0.00in /  0mm
12:19 42.2 °F /  5.7 °C 27.6 °F /  -2.4 °C 30.36in /  1028hPa NE 4.0mph /  6.4km/h 9.0mph /  14.5km/h 56% 0.00in /  0mm
12:24 42.9 °F /  6.1 °C 30.0 °F /  -1.1 °C 30.36in /  1028hPa ENE 2.0mph /  3.2km/h 7.0mph /  11.3km/h 60% 0.00in /  0mm
12:29 43.0 °F /  6.1 °C 27.9 °F /  -2.3 °C 30.36in /  1028hPa NNE 6.0mph /  9.7km/h 6.0mph /  9.7km/h 55% 0.00in /  0mm
12:34 42.1 °F /  5.6 °C 25.3 °F /  -3.7 °C 30.35in /  1027.7hPa NNE 3.0mph /  4.8km/h 8.0mph /  12.9km/h 51% 0.00in /  0mm
12:39 43.3 °F /  6.3 °C 28.2 °F /  -2.1 °C 30.35in /  1027.7hPa East 2.0mph /  3.2km/h 8.0mph /  12.9km/h 55% 0.00in /  0mm
12:44 44.4 °F /  6.9 °C 28.3 °F /  -2.1 °C 30.34in /  1027.3hPa NE 3.0mph /  4.8km/h 8.0mph /  12.9km/h 53% 0.00in /  0mm
12:49 43.3 °F /  6.3 °C 27.3 °F /  -2.6 °C 30.34in /  1027.3hPa NE 4.0mph /  6.4km/h 11.0mph /  17.7km/h 53% 0.00in /  0mm
12:54 43.7 °F /  6.5 °C 25.8 °F /  -3.4 °C 30.34in /  1027.3hPa NE 5.0mph /  8km/h 11.0mph /  17.7km/h 49% 0.00in /  0mm
12:59 43.3 °F /  6.3 °C 25.9 °F /  -3.4 °C 30.34in /  1027.3hPa NE 5.0mph /  8km/h 12.0mph /  19.3km/h 50% 0.00in /  0mm
13:04 42.8 °F /  6 °C 25.4 °F /  -3.7 °C 30.33in /  1027hPa NE 4.0mph /  6.4km/h 12.0mph /  19.3km/h 50% 0.00in /  0mm
13:09 43.8 °F /  6.6 °C 27.8 °F /  -2.3 °C 30.34in /  1027.3hPa NE 5.0mph /  8km/h 9.0mph /  14.5km/h 53% 0.00in /  0mm
13:14 43.5 °F /  6.4 °C 25.6 °F /  -3.6 °C 30.34in /  1027.3hPa NE 6.0mph /  9.7km/h 9.0mph /  14.5km/h 49% 0.00in /  0mm
13:19 43.7 °F /  6.5 °C 25.8 °F /  -3.4 °C 30.34in /  1027.3hPa NE 5.0mph /  8km/h 13.0mph /  20.9km/h 49% 0.00in /  0mm
13:24 43.7 °F /  6.5 °C 24.8 °F /  -4 °C 30.34in /  1027.3hPa NE 5.0mph /  8km/h 8.0mph /  12.9km/h 47% 0.00in /  0mm
13:29 44.4 °F /  6.9 °C 24.9 °F /  -3.9 °C 30.34in /  1027.3hPa NE 5.0mph /  8km/h 5.0mph /  8km/h 46% 0.00in /  0mm
13:34 44.2 °F /  6.8 °C 24.7 °F /  -4.1 °C 30.34in /  1027.3hPa NE 4.0mph /  6.4km/h 8.0mph /  12.9km/h 46% 0.00in /  0mm
13:39 44.0 °F /  6.7 °C 24.0 °F /  -4.4 °C 30.34in /  1027.3hPa ENE 2.0mph /  3.2km/h 9.0mph /  14.5km/h 45% 0.00in /  0mm
13:44 45.3 °F /  7.4 °C 26.2 °F /  -3.2 °C 30.34in /  1027.3hPa NNE 2.0mph /  3.2km/h 7.0mph /  11.3km/h 47% 0.00in /  0mm
13:49 44.7 °F /  7.1 °C 23.5 °F /  -4.7 °C 30.34in /  1027.3hPa NNE 4.0mph /  6.4km/h 8.0mph /  12.9km/h 43% 0.00in /  0mm
13:54 44.9 °F /  7.2 °C 24.8 °F /  -4 °C 30.35in /  1027.7hPa NE 4.0mph /  6.4km/h 8.0mph /  12.9km/h 45% 0.00in /  0mm
13:59 44.5 °F /  6.9 °C 23.4 °F /  -4.8 °C 30.34in /  1027.3hPa NNE 3.0mph /  4.8km/h 8.0mph /  12.9km/h 43% 0.00in /  0mm
14:04 45.5 °F /  7.5 °C 25.4 °F /  -3.7 °C 30.34in /  1027.3hPa NNE 3.0mph /  4.8km/h 8.0mph /  12.9km/h 45% 0.00in /  0mm
14:09 45.2 °F /  7.3 °C 23.4 °F /  -4.8 °C 30.34in /  1027.3hPa NE 4.0mph /  6.4km/h 9.0mph /  14.5km/h 42% 0.00in /  0mm
14:14 45.2 °F /  7.3 °C 22.9 °F /  -5.1 °C 30.34in /  1027.3hPa ENE 4.0mph /  6.4km/h 9.0mph /  14.5km/h 41% 0.00in /  0mm
14:19 45.0 °F /  7.2 °C 23.3 °F /  -4.8 °C 30.34in /  1027.3hPa NE 4.0mph /  6.4km/h 7.0mph /  11.3km/h 42% 0.00in /  0mm
14:24 44.5 °F /  6.9 °C 23.9 °F /  -4.5 °C 30.34in /  1027.3hPa NE 4.0mph /  6.4km/h 6.0mph /  9.7km/h 44% 0.00in /  0mm
14:29 45.0 °F /  7.2 °C 22.7 °F /  -5.2 °C 30.34in /  1027.3hPa NNE 4.0mph /  6.4km/h 8.0mph /  12.9km/h 41% 0.00in /  0mm
14:34 45.7 °F /  7.6 °C 23.9 °F /  -4.5 °C 30.34in /  1027.3hPa ENE 3.0mph /  4.8km/h 8.0mph /  12.9km/h 42% 0.00in /  0mm
14:39 46.1 °F /  7.8 °C 24.3 °F /  -4.3 °C 30.34in /  1027.3hPa NE 4.0mph /  6.4km/h 9.0mph /  14.5km/h 42% 0.00in /  0mm
14:44 46.1 °F /  7.8 °C 24.3 °F /  -4.3 °C 30.34in /  1027.3hPa ESE 5.0mph /  8km/h 7.0mph /  11.3km/h 42% 0.00in /  0mm
14:49 46.6 °F /  8.1 °C 22.9 °F /  -5.1 °C 30.34in /  1027.3hPa NE 4.0mph /  6.4km/h 9.0mph /  14.5km/h 39% 0.00in /  0mm
14:54 46.1 °F /  7.8 °C 21.2 °F /  -6 °C 30.34in /  1027.3hPa NE 5.0mph /  8km/h 10.0mph /  16.1km/h 37% 0.00in /  0mm
14:59 46.1 °F /  7.8 °C 21.2 °F /  -6 °C 30.34in /  1027.3hPa NE 4.0mph /  6.4km/h 10.0mph /  16.1km/h 37% 0.00in /  0mm
15:04 45.9 °F /  7.7 °C 21.1 °F /  -6.1 °C 30.34in /  1027.3hPa NE 4.0mph /  6.4km/h 9.0mph /  14.5km/h 37% 0.00in /  0mm
15:09 45.8 °F /  7.7 °C 22.2 °F /  -5.4 °C 30.34in /  1027.3hPa NE 4.0mph /  6.4km/h 9.0mph /  14.5km/h 39% 0.00in /  0mm
15:14 45.5 °F /  7.5 °C 22.5 °F /  -5.3 °C 30.34in /  1027.3hPa ENE 3.0mph /  4.8km/h 8.0mph /  12.9km/h 40% 0.00in /  0mm
15:19 46.0 °F /  7.8 °C 22.4 °F /  -5.3 °C 30.34in /  1027.3hPa NNE 3.0mph /  4.8km/h 6.0mph /  9.7km/h 39% 0.00in /  0mm
15:24 46.3 °F /  7.9 °C 22.7 °F /  -5.2 °C 30.34in /  1027.3hPa NE 3.0mph /  4.8km/h 7.0mph /  11.3km/h 39% 0.00in /  0mm
15:29 46.0 °F /  7.8 °C 21.8 °F /  -5.7 °C 30.34in /  1027.3hPa NNE 2.0mph /  3.2km/h 7.0mph /  11.3km/h 38% 0.00in /  0mm
15:34 46.4 °F /  8 °C 22.1 °F /  -5.5 °C 30.34in /  1027.3hPa NE 2.0mph /  3.2km/h 6.0mph /  9.7km/h 38% 0.00in /  0mm
15:39 46.2 °F /  7.9 °C 23.2 °F /  -4.9 °C 30.34in /  1027.3hPa ENE 2.0mph /  3.2km/h 7.0mph /  11.3km/h 40% 0.00in /  0mm
15:44 46.0 °F /  7.8 °C 22.4 °F /  -5.3 °C 30.34in /  1027.3hPa NE 6.0mph /  9.7km/h 8.0mph /  12.9km/h 39% 0.00in /  0mm
15:49 46.0 °F /  7.8 °C 21.8 °F /  -5.7 °C 30.34in /  1027.3hPa NNE 2.0mph /  3.2km/h 9.0mph /  14.5km/h 38% 0.00in /  0mm
15:54 46.0 °F /  7.8 °C 22.4 °F /  -5.3 °C 30.34in /  1027.3hPa NE 2.0mph /  3.2km/h 9.0mph /  14.5km/h 39% 0.00in /  0mm
15:59 46.0 °F /  7.8 °C 23.0 °F /  -5 °C 30.34in /  1027.3hPa NE 4.0mph /  6.4km/h 9.0mph /  14.5km/h 40% 0.00in /  0mm
16:04 45.9 °F /  7.7 °C 21.1 °F /  -6.1 °C 30.34in /  1027.3hPa ENE 3.0mph /  4.8km/h 8.0mph /  12.9km/h 37% 0.00in /  0mm
16:09 45.4 °F /  7.4 °C 21.2 °F /  -6 °C 30.34in /  1027.3hPa ENE 4.0mph /  6.4km/h 10.0mph /  16.1km/h 38% 0.00in /  0mm
16:14 45.3 °F /  7.4 °C 20.5 °F /  -6.4 °C 30.34in /  1027.3hPa East 8.0mph /  12.9km/h 8.0mph /  12.9km/h 37% 0.00in /  0mm
16:19 45.2 °F /  7.3 °C 21.1 °F /  -6.1 °C 30.35in /  1027.7hPa NE 5.0mph /  8km/h 8.0mph /  12.9km/h 38% 0.00in /  0mm
16:24 45.3 °F /  7.4 °C 21.8 °F /  -5.7 °C 30.35in /  1027.7hPa ESE 8.0mph /  12.9km/h 9.0mph /  14.5km/h 39% 0.00in /  0mm
16:29 45.3 °F /  7.4 °C 22.4 °F /  -5.3 °C 30.35in /  1027.7hPa ENE 4.0mph /  6.4km/h 9.0mph /  14.5km/h 40% 0.00in /  0mm
16:34 45.0 °F /  7.2 °C 22.7 °F /  -5.2 °C 30.34in /  1027.3hPa NE 4.0mph /  6.4km/h 9.0mph /  14.5km/h 41% 0.00in /  0mm
16:39 44.5 °F /  6.9 °C 22.2 °F /  -5.4 °C 30.34in /  1027.3hPa NE 5.0mph /  8km/h 11.0mph /  17.7km/h 41% 0.00in /  0mm
16:44 44.1 °F /  6.7 °C 23.0 °F /  -5 °C 30.34in /  1027.3hPa NNE 3.0mph /  4.8km/h 10.0mph /  16.1km/h 43% 0.00in /  0mm
16:49 44.0 °F /  6.7 °C 22.9 °F /  -5.1 °C 30.34in /  1027.3hPa ENE 8.0mph /  12.9km/h 9.0mph /  14.5km/h 43% 0.00in /  0mm
16:54 43.8 °F /  6.6 °C 23.3 °F /  -4.8 °C 30.34in /  1027.3hPa NNE 5.0mph /  8km/h 9.0mph /  14.5km/h 44% 0.00in /  0mm
16:59 43.5 °F /  6.4 °C 23.5 °F /  -4.7 °C 30.34in /  1027.3hPa NE 5.0mph /  8km/h 9.0mph /  14.5km/h 45% 0.00in /  0mm
17:04 43.1 °F /  6.2 °C 23.7 °F /  -4.6 °C 30.34in /  1027.3hPa NE 5.0mph /  8km/h 11.0mph /  17.7km/h 46% 0.00in /  0mm
17:09 42.8 °F /  6 °C 23.9 °F /  -4.5 °C 30.34in /  1027.3hPa NE 6.0mph /  9.7km/h 11.0mph /  17.7km/h 47% 0.00in /  0mm
17:14 42.3 °F /  5.7 °C 24.5 °F /  -4.2 °C 30.34in /  1027.3hPa NE 4.0mph /  6.4km/h 10.0mph /  16.1km/h 49% 0.00in /  0mm
17:19 41.8 °F /  5.4 °C 24.5 °F /  -4.2 °C 30.34in /  1027.3hPa NE 4.0mph /  6.4km/h 10.0mph /  16.1km/h 50% 0.00in /  0mm
17:24 41.4 °F /  5.2 °C 24.6 °F /  -4.1 °C 30.34in /  1027.3hPa ENE 9.0mph /  14.5km/h 10.0mph /  16.1km/h 51% 0.00in /  0mm
17:29 40.9 °F /  4.9 °C 24.1 °F /  -4.4 °C 30.34in /  1027.3hPa NE 6.0mph /  9.7km/h 11.0mph /  17.7km/h 51% 0.00in /  0mm
17:34 40.2 °F /  4.6 °C 24.0 °F /  -4.4 °C 30.34in /  1027.3hPa NE 6.0mph /  9.7km/h 11.0mph /  17.7km/h 52% 0.00in /  0mm
17:39 39.7 °F /  4.3 °C 24.0 °F /  -4.4 °C 30.34in /  1027.3hPa NE 6.0mph /  9.7km/h 14.0mph /  22.5km/h 53% 0.00in /  0mm
17:44 39.3 °F /  4.1 °C 23.6 °F /  -4.7 °C 30.34in /  1027.3hPa NE 9.0mph /  14.5km/h 14.0mph /  22.5km/h 53% 0.00in /  0mm
17:49 38.9 °F /  3.8 °C 23.2 °F /  -4.9 °C 30.34in /  1027.3hPa NE 6.0mph /  9.7km/h 12.0mph /  19.3km/h 53% 0.00in /  0mm
17:54 38.5 °F /  3.6 °C 23.3 °F /  -4.8 °C 30.34in /  1027.3hPa NE 3.0mph /  4.8km/h 12.0mph /  19.3km/h 54% 0.00in /  0mm
17:59 38.0 °F /  3.3 °C 23.3 °F /  -4.8 °C 30.34in /  1027.3hPa NE 2.0mph /  3.2km/h 8.0mph /  12.9km/h 55% 0.00in /  0mm
18:04 37.7 °F /  3.2 °C 23.0 °F /  -5 °C 30.34in /  1027.3hPa NE 4.0mph /  6.4km/h 10.0mph /  16.1km/h 55% 0.00in /  0mm
18:09 37.5 °F /  3.1 °C 23.2 °F /  -4.9 °C 30.34in /  1027.3hPa NE 4.0mph /  6.4km/h 10.0mph /  16.1km/h 56% 0.00in /  0mm
18:14 37.3 °F /  2.9 °C 23.0 °F /  -5 °C 30.34in /  1027.3hPa NNE 5.0mph /  8km/h 11.0mph /  17.7km/h 56% 0.00in /  0mm
18:19 37.1 °F /  2.8 °C 22.8 °F /  -5.1 °C 30.34in /  1027.3hPa NE 3.0mph /  4.8km/h 12.0mph /  19.3km/h 56% 0.00in /  0mm
18:24 36.8 °F /  2.7 °C 23.0 °F /  -5 °C 30.34in /  1027.3hPa NE 3.0mph /  4.8km/h 8.0mph /  12.9km/h 57% 0.00in /  0mm
18:29 36.5 °F /  2.5 °C 23.1 °F /  -4.9 °C 30.34in /  1027.3hPa NE 5.0mph /  8km/h 9.0mph /  14.5km/h 58% 0.00in /  0mm
18:34 36.4 °F /  2.4 °C 23.0 °F /  -5 °C 30.34in /  1027.3hPa NE 5.0mph /  8km/h 9.0mph /  14.5km/h 58% 0.00in /  0mm
18:39 36.0 °F /  2.2 °C 23.0 °F /  -5 °C 30.34in /  1027.3hPa NE 4.0mph /  6.4km/h 8.0mph /  12.9km/h 59% 0.00in /  0mm
18:44 35.8 °F /  2.1 °C 22.9 °F /  -5.1 °C 30.34in /  1027.3hPa NE 5.0mph /  8km/h 8.0mph /  12.9km/h 59% 0.00in /  0mm
18:49 35.7 °F /  2.1 °C 23.2 °F /  -4.9 °C 30.34in /  1027.3hPa NNE 2.0mph /  3.2km/h 8.0mph /  12.9km/h 60% 0.00in /  0mm
18:54 35.6 °F /  2 °C 23.1 °F /  -4.9 °C 30.34in /  1027.3hPa NE 9.0mph /  14.5km/h 13.0mph /  20.9km/h 60% 0.00in /  0mm
18:59 35.3 °F /  1.8 °C 23.2 °F /  -4.9 °C 30.34in /  1027.3hPa NE 5.0mph /  8km/h 13.0mph /  20.9km/h 61% 0.00in /  0mm
19:04 35.2 °F /  1.8 °C 23.1 °F /  -4.9 °C 30.35in /  1027.7hPa NE 5.0mph /  8km/h 10.0mph /  16.1km/h 61% 0.00in /  0mm
19:09 35.1 °F /  1.7 °C 23.0 °F /  -5 °C 30.35in /  1027.7hPa NE 4.0mph /  6.4km/h 11.0mph /  17.7km/h 61% 0.00in /  0mm
19:14 34.9 °F /  1.6 °C 23.2 °F /  -4.9 °C 30.34in /  1027.3hPa ENE 4.0mph /  6.4km/h 9.0mph /  14.5km/h 62% 0.00in /  0mm
19:19 34.9 °F /  1.6 °C 22.8 °F /  -5.1 °C 30.34in /  1027.3hPa NE 8.0mph /  12.9km/h 9.0mph /  14.5km/h 61% 0.00in /  0mm
19:24 34.6 °F /  1.4 °C 22.5 °F /  -5.3 °C 30.34in /  1027.3hPa NE 7.0mph /  11.3km/h 10.0mph /  16.1km/h 61% 0.00in /  0mm
19:29 34.5 °F /  1.4 °C 22.4 °F /  -5.3 °C 30.34in /  1027.3hPa NE 6.0mph /  9.7km/h 14.0mph /  22.5km/h 61% 0.00in /  0mm
19:34 34.4 °F /  1.3 °C 22.3 °F /  -5.4 °C 30.34in /  1027.3hPa NE 7.0mph /  11.3km/h 14.0mph /  22.5km/h 61% 0.00in /  0mm
19:39 34.2 °F /  1.2 °C 22.1 °F /  -5.5 °C 30.34in /  1027.3hPa NNE 5.0mph /  8km/h 10.0mph /  16.1km/h 61% 0.00in /  0mm
19:44 34.0 °F /  1.1 °C 22.0 °F /  -5.6 °C 30.34in /  1027.3hPa NNE 7.0mph /  11.3km/h 12.0mph /  19.3km/h 61% 0.00in /  0mm
19:49 33.9 °F /  1.1 °C 22.2 °F /  -5.4 °C 30.34in /  1027.3hPa ENE 3.0mph /  4.8km/h 10.0mph /  16.1km/h 62% 0.00in /  0mm
19:54 33.7 °F /  0.9 °C 22.1 °F /  -5.5 °C 30.34in /  1027.3hPa NE 5.0mph /  8km/h 10.0mph /  16.1km/h 62% 0.00in /  0mm
19:59 33.6 °F /  0.9 °C 22.3 °F /  -5.4 °C 30.34in /  1027.3hPa ENE 5.0mph /  8km/h 10.0mph /  16.1km/h 63% 0.00in /  0mm
20:04 33.5 °F /  0.8 °C 22.2 °F /  -5.4 °C 30.35in /  1027.7hPa NE 5.0mph /  8km/h 9.0mph /  14.5km/h 63% 0.00in /  0mm
20:09 33.3 °F /  0.7 °C 22.4 °F /  -5.3 °C 30.34in /  1027.3hPa NE 4.0mph /  6.4km/h 8.0mph /  12.9km/h 64% 0.00in /  0mm
20:14 33.2 °F /  0.7 °C 22.3 °F /  -5.4 °C 30.34in /  1027.3hPa ENE 4.0mph /  6.4km/h 8.0mph /  12.9km/h 64% 0.00in /  0mm
20:19 33.1 °F /  0.6 °C 22.6 °F /  -5.2 °C 30.34in /  1027.3hPa ENE 5.0mph /  8km/h 8.0mph /  12.9km/h 65% 0.00in /  0mm
20:24 33.0 °F /  0.6 °C 22.5 °F /  -5.3 °C 30.34in /  1027.3hPa NE 6.0mph /  9.7km/h 10.0mph /  16.1km/h 65% 0.00in /  0mm
20:29 33.0 °F /  0.6 °C 22.5 °F /  -5.3 °C 30.34in /  1027.3hPa ENE 5.0mph /  8km/h 10.0mph /  16.1km/h 65% 0.00in /  0mm
20:34 32.9 °F /  0.5 °C 22.8 °F /  -5.1 °C 30.35in /  1027.7hPa NE 4.0mph /  6.4km/h 8.0mph /  12.9km/h 66% 0.00in /  0mm
20:39 32.7 °F /  0.4 °C 22.6 °F /  -5.2 °C 30.35in /  1027.7hPa NE 2.0mph /  3.2km/h 7.0mph /  11.3km/h 66% 0.00in /  0mm
20:44 32.6 °F /  0.3 °C 22.8 °F /  -5.1 °C 30.35in /  1027.7hPa ENE 2.0mph /  3.2km/h 9.0mph /  14.5km/h 67% 0.00in /  0mm
20:49 32.6 °F /  0.3 °C 22.8 °F /  -5.1 °C 30.35in /  1027.7hPa ENE 7.0mph /  11.3km/h 8.0mph /  12.9km/h 67% 0.00in /  0mm
20:54 32.4 °F /  0.2 °C 22.7 °F /  -5.2 °C 30.35in /  1027.7hPa East 6.0mph /  9.7km/h 9.0mph /  14.5km/h 67% 0.00in /  0mm
20:59 32.3 °F /  0.2 °C 22.9 °F /  -5.1 °C 30.35in /  1027.7hPa ENE 4.0mph /  6.4km/h 9.0mph /  14.5km/h 68% 0.00in /  0mm
21:04 32.2 °F /  0.1 °C 22.8 °F /  -5.1 °C 30.35in /  1027.7hPa ENE 4.0mph /  6.4km/h 9.0mph /  14.5km/h 68% 0.00in /  0mm
21:09 32.1 °F /  0.1 °C 22.4 °F /  -5.3 °C 30.35in /  1027.7hPa ENE 4.0mph /  6.4km/h 10.0mph /  16.1km/h 67% 0.00in /  0mm
21:14 32.1 °F /  0.1 °C 22.0 °F /  -5.6 °C 30.34in /  1027.3hPa ENE 5.0mph /  8km/h 10.0mph /  16.1km/h 66% 0.00in /  0mm
21:19 32.0 °F /  0 °C 21.9 °F /  -5.6 °C 30.34in /  1027.3hPa ENE 5.0mph /  8km/h 9.0mph /  14.5km/h 66% 0.00in /  0mm
21:24 31.9 °F /  -0.1 °C 21.8 °F /  -5.7 °C 30.34in /  1027.3hPa ENE 4.0mph /  6.4km/h 8.0mph /  12.9km/h 66% 0.00in /  0mm
21:29 31.8 °F /  -0.1 °C 21.7 °F /  -5.7 °C 30.34in /  1027.3hPa ENE 5.0mph /  8km/h 8.0mph /  12.9km/h 66% 0.00in /  0mm
21:34 31.7 °F /  -0.2 °C 21.6 °F /  -5.8 °C 30.34in /  1027.3hPa ENE 4.0mph /  6.4km/h 10.0mph /  16.1km/h 66% 0.00in /  0mm
21:39 31.6 °F /  -0.2 °C 21.5 °F /  -5.8 °C 30.33in /  1027hPa NE 5.0mph /  8km/h 9.0mph /  14.5km/h 66% 0.00in /  0mm
21:44 31.6 °F /  -0.2 °C 21.2 °F /  -6 °C 30.34in /  1027.3hPa ESE 4.0mph /  6.4km/h 12.0mph /  19.3km/h 65% 0.00in /  0mm
21:49 31.5 °F /  -0.3 °C 21.1 °F /  -6.1 °C 30.33in /  1027hPa ENE 3.0mph /  4.8km/h 10.0mph /  16.1km/h 65% 0.00in /  0mm
21:54 31.4 °F /  -0.3 °C 21.0 °F /  -6.1 °C 30.33in /  1027hPa East 5.0mph /  8km/h 10.0mph /  16.1km/h 65% 0.00in /  0mm
21:59 31.3 °F /  -0.4 °C 20.5 °F /  -6.4 °C 30.33in /  1027hPa ENE 1.0mph /  1.6km/h 8.0mph /  12.9km/h 64% 0.00in /  0mm
22:04 31.2 °F /  -0.4 °C 20.4 °F /  -6.4 °C 30.32in /  1026.6hPa ENE 4.0mph /  6.4km/h 9.0mph /  14.5km/h 64% 0.00in /  0mm
22:09 31.1 °F /  -0.5 °C 20.3 °F /  -6.5 °C 30.32in /  1026.6hPa ENE 5.0mph /  8km/h 11.0mph /  17.7km/h 64% 0.00in /  0mm
22:14 31.1 °F /  -0.5 °C 20.0 °F /  -6.7 °C 30.31in /  1026.3hPa ENE 6.0mph /  9.7km/h 12.0mph /  19.3km/h 63% 0.00in /  0mm
22:19 31.0 °F /  -0.6 °C 19.9 °F /  -6.7 °C 30.31in /  1026.3hPa East 6.0mph /  9.7km/h 11.0mph /  17.7km/h 63% 0.00in /  0mm
22:24 30.8 °F /  -0.7 °C 19.7 °F /  -6.8 °C 30.31in /  1026.3hPa East 3.0mph /  4.8km/h 9.0mph /  14.5km/h 63% 0.00in /  0mm
22:29 30.8 °F /  -0.7 °C 20.0 °F /  -6.7 °C 30.31in /  1026.3hPa ENE 5.0mph /  8km/h 10.0mph /  16.1km/h 64% 0.00in /  0mm
22:34 30.7 °F /  -0.7 °C 20.0 °F /  -6.7 °C 30.30in /  1026hPa ENE 5.0mph /  8km/h 13.0mph /  20.9km/h 64% 0.00in /  0mm
22:39 30.7 °F /  -0.7 °C 20.0 °F /  -6.7 °C 30.30in /  1026hPa ENE 4.0mph /  6.4km/h 13.0mph /  20.9km/h 64% 0.00in /  0mm
22:44 30.7 °F /  -0.7 °C 20.0 °F /  -6.7 °C 30.30in /  1026hPa ENE 3.0mph /  4.8km/h 10.0mph /  16.1km/h 64% 0.00in /  0mm
22:49 30.7 °F /  -0.7 °C 20.0 °F /  -6.7 °C 30.29in /  1025.6hPa East 5.0mph /  8km/h 11.0mph /  17.7km/h 64% 0.00in /  0mm
22:54 30.6 °F /  -0.8 °C 20.2 °F /  -6.6 °C 30.30in /  1026hPa ESE 2.0mph /  3.2km/h 9.0mph /  14.5km/h 65% 0.00in /  0mm
22:59 30.7 °F /  -0.7 °C 20.3 °F /  -6.5 °C 30.29in /  1025.6hPa ENE 2.0mph /  3.2km/h 9.0mph /  14.5km/h 65% 0.00in /  0mm
23:04 30.7 °F /  -0.7 °C 20.3 °F /  -6.5 °C 30.29in /  1025.6hPa ENE 3.0mph /  4.8km/h 9.0mph /  14.5km/h 65% 0.00in /  0mm
23:09 30.8 °F /  -0.7 °C 20.4 °F /  -6.4 °C 30.29in /  1025.6hPa ENE 3.0mph /  4.8km/h 7.0mph /  11.3km/h 65% 0.00in /  0mm
23:14 30.8 °F /  -0.7 °C 20.4 °F /  -6.4 °C 30.29in /  1025.6hPa ENE 4.0mph /  6.4km/h 7.0mph /  11.3km/h 65% 0.00in /  0mm
23:19 30.9 °F /  -0.6 °C 20.5 °F /  -6.4 °C 30.28in /  1025.3hPa East 2.0mph /  3.2km/h 7.0mph /  11.3km/h 65% 0.00in /  0mm
23:24 30.9 °F /  -0.6 °C 20.5 °F /  -6.4 °C 30.29in /  1025.6hPa ENE 2.0mph /  3.2km/h 7.0mph /  11.3km/h 65% 0.00in /  0mm
23:29 30.8 °F /  -0.7 °C 20.4 °F /  -6.4 °C 30.28in /  1025.3hPa NE 3.0mph /  4.8km/h 5.0mph /  8km/h 65% 0.00in /  0mm
23:34 30.8 °F /  -0.7 °C 20.4 °F /  -6.4 °C 30.27in /  1024.9hPa ENE 3.0mph /  4.8km/h 7.0mph /  11.3km/h 65% 0.00in /  0mm
23:39 30.8 °F /  -0.7 °C 20.0 °F /  -6.7 °C 30.27in /  1024.9hPa ENE 4.0mph /  6.4km/h 7.0mph /  11.3km/h 64% 0.00in /  0mm
23:44 30.7 °F /  -0.7 °C 20.0 °F /  -6.7 °C 30.26in /  1024.6hPa NE 2.0mph /  3.2km/h 9.0mph /  14.5km/h 64% 0.00in /  0mm
23:49 30.7 °F /  -0.7 °C 20.0 °F /  -6.7 °C 30.26in /  1024.6hPa ENE 2.0mph /  3.2km/h 11.0mph /  17.7km/h 64% 0.00in /  0mm
23:54 30.8 °F /  -0.7 °C 19.7 °F /  -6.8 °C 30.25in /  1024.3hPa ENE 3.0mph /  4.8km/h 8.0mph /  12.9km/h 63% 0.00in /  0mm
23:59 30.8 °F /  -0.7 °C 19.7 °F /  -6.8 °C 30.25in /  1024.3hPa NE 3.0mph /  4.8km/h 8.0mph /  12.9km/h 63% 0.00in /  0mm
Buffalo, New York, USA
Compliments of Weather Underground - 2.5 mb